This is the latest recevied weather packets stored in our database for station/object N4NVD-13. If no packets are shown the sender has not sent any weather packets the latest 10 day(s).
| Time | Temp. | Humidity | Pressure | Rain* | Wind** | Luminosity | Snow |
|---|---|---|---|---|---|---|---|
| 1777564386 | 18.89° C | 99% | 1012 hPa | 0 mm | - | 59 W/m² | - |
| 1777564083 | 19.44° C | 99% | 1012 hPa | 0 mm | - | 39 W/m² | - |
| 1777563779 | 19.44° C | 99% | 1011.8 hPa | 0 mm | - | 38 W/m² | - |
| 1777563475 | 19.44° C | 99% | 1012.1 hPa | 0 mm | - | 22 W/m² | - |
| 1777563175 | 19.44° C | 99% | 1012.4 hPa | 0 mm | - | 20 W/m² | - |
| 1777562871 | 19.44° C | 99% | 1012 hPa | 0 mm | - | 26 W/m² | - |
| 1777562568 | 19.44° C | 99% | 1011.8 hPa | 0 mm | - | 39 W/m² | - |
| 1777562266 | 19.44° C | 99% | 1011.5 hPa | 0 mm | - | 61 W/m² | - |
| 1777561963 | 19.44° C | 99% | 1011.3 hPa | 0 mm | - | 102 W/m² | - |
| 1777561661 | 19.44° C | 99% | 1011 hPa | 0 mm | - | 144 W/m² | - |
| 1777561356 | 19.44° C | 99% | 1010.9 hPa | 0 mm | - | 114 W/m² | - |
| 1777561052 | 18.89° C | 99% | 1011.1 hPa | 0 mm | - | 103 W/m² | - |
| 1777560747 | 18.89° C | 99% | 1011.3 hPa | 0 mm | - | 57 W/m² | - |
| 1777560444 | 18.89° C | 99% | 1011.3 hPa | 0 mm | - | 46 W/m² | - |
| 1777560142 | 18.89° C | 99% | 1011.3 hPa | 0 mm | - | 40 W/m² | - |
| 1777559839 | 18.89° C | 99% | 1011 hPa | 0 mm | - | 46 W/m² | - |
| 1777559534 | 18.33° C | 99% | 1011.1 hPa | 0 mm | - | 61 W/m² | - |
| 1777559232 | 18.33° C | 99% | 1011 hPa | 0 mm | - | 61 W/m² | - |
| 1777558932 | 18.33° C | 99% | 1010.5 hPa | 0 mm | - | 137 W/m² | - |
| 1777558628 | 18.33° C | 99% | 1010.7 hPa | 0 mm | - | 110 W/m² | - |
| 1777558324 | 18.33° C | 99% | 1011.2 hPa | 0 mm | - | 105 W/m² | - |
| 1777558021 | 18.33° C | 99% | 1011.2 hPa | 0 mm | - | 44 W/m² | - |
| 1777557717 | 18.33° C | 99% | 1011.5 hPa | 0 mm | - | 28 W/m² | - |
| 1777557413 | 18.33° C | 99% | 1011.5 hPa | 0 mm | - | 26 W/m² | - |
| 1777557110 | 18.33° C | 99% | 1011.5 hPa | 0 mm | - | 29 W/m² | - |
* Rain latest hour (hover to see other rain measurements)
** Current wind speed in m/s (hover to see current wind gust speed)